sensor_id;sensor_type;location;lat;lon;timestamp;P1;durP1;ratioP1;P2;durP2;ratioP2
23632;SDS011;11993;48.748;9.166;2024-03-02T00:00:20;17.30;;;11.82;;
23632;SDS011;11993;48.748;9.166;2024-03-02T00:02:47;18.70;;;11.80;;
23632;SDS011;11993;48.748;9.166;2024-03-02T00:05:18;14.80;;;10.38;;
23632;SDS011;11993;48.748;9.166;2024-03-02T00:07:54;16.50;;;9.77;;
23632;SDS011;11993;48.748;9.166;2024-03-02T00:12:54;15.93;;;10.70;;
23632;SDS011;11993;48.748;9.166;2024-03-02T00:18:19;15.90;;;10.10;;
23632;SDS011;11993;48.748;9.166;2024-03-02T00:20:46;19.13;;;10.93;;
23632;SDS011;11993;48.748;9.166;2024-03-02T00:23:14;18.38;;;11.05;;
23632;SDS011;11993;48.748;9.166;2024-03-02T00:25:41;16.67;;;10.25;;
23632;SDS011;11993;48.748;9.166;2024-03-02T00:28:13;16.50;;;10.85;;
23632;SDS011;11993;48.748;9.166;2024-03-02T00:33:08;14.30;;;9.63;;
23632;SDS011;11993;48.748;9.166;2024-03-02T00:35:34;14.02;;;9.63;;
23632;SDS011;11993;48.748;9.166;2024-03-02T00:38:06;14.07;;;10.32;;
23632;SDS011;11993;48.748;9.166;2024-03-02T00:40:31;16.13;;;10.18;;
23632;SDS011;11993;48.748;9.166;2024-03-02T00:42:57;13.45;;;9.30;;
23632;SDS011;11993;48.748;9.166;2024-03-02T00:45:24;14.00;;;9.38;;
23632;SDS011;11993;48.748;9.166;2024-03-02T00:47:50;14.02;;;9.65;;
23632;SDS011;11993;48.748;9.166;2024-03-02T00:50:16;15.88;;;9.65;;
23632;SDS011;11993;48.748;9.166;2024-03-02T00:52:42;14.68;;;8.75;;
23632;SDS011;11993;48.748;9.166;2024-03-02T00:55:08;13.90;;;8.80;;
23632;SDS011;11993;48.748;9.166;2024-03-02T00:57:33;16.58;;;9.35;;
23632;SDS011;11993;48.748;9.166;2024-03-02T00:59:59;12.75;;;9.40;;
23632;SDS011;11993;48.748;9.166;2024-03-02T01:02:25;14.82;;;9.20;;
23632;SDS011;11993;48.748;9.166;2024-03-02T01:04:51;12.40;;;8.70;;
23632;SDS011;11993;48.748;9.166;2024-03-02T01:07:17;13.55;;;9.75;;
23632;SDS011;11993;48.748;9.166;2024-03-02T01:09:42;16.25;;;9.77;;
23632;SDS011;11993;48.748;9.166;2024-03-02T01:12:08;14.10;;;9.48;;
23632;SDS011;11993;48.748;9.166;2024-03-02T01:14:34;14.38;;;9.95;;
23632;SDS011;11993;48.748;9.166;2024-03-02T01:17:00;12.07;;;8.93;;
23632;SDS011;11993;48.748;9.166;2024-03-02T01:19:28;14.68;;;9.57;;
23632;SDS011;11993;48.748;9.166;2024-03-02T01:21:54;11.60;;;8.68;;
23632;SDS011;11993;48.748;9.166;2024-03-02T01:24:19;13.32;;;8.93;;
23632;SDS011;11993;48.748;9.166;2024-03-02T01:26:45;14.32;;;9.73;;
23632;SDS011;11993;48.748;9.166;2024-03-02T01:29:10;12.15;;;9.18;;
23632;SDS011;11993;48.748;9.166;2024-03-02T01:31:36;12.00;;;8.70;;
23632;SDS011;11993;48.748;9.166;2024-03-02T01:34:01;12.05;;;8.57;;
23632;SDS011;11993;48.748;9.166;2024-03-02T01:36:27;14.73;;;9.55;;
23632;SDS011;11993;48.748;9.166;2024-03-02T01:38:53;18.20;;;8.82;;
23632;SDS011;11993;48.748;9.166;2024-03-02T01:41:18;14.30;;;8.95;;
23632;SDS011;11993;48.748;9.166;2024-03-02T01:43:43;13.18;;;9.15;;
23632;SDS011;11993;48.748;9.166;2024-03-02T01:46:09;12.43;;;9.02;;
23632;SDS011;11993;48.748;9.166;2024-03-02T01:48:35;15.13;;;9.77;;
23632;SDS011;11993;48.748;9.166;2024-03-02T01:51:00;12.40;;;9.15;;
23632;SDS011;11993;48.748;9.166;2024-03-02T01:53:26;15.10;;;10.23;;
23632;SDS011;11993;48.748;9.166;2024-03-02T01:55:53;14.48;;;9.57;;
23632;SDS011;11993;48.748;9.166;2024-03-02T01:58:18;14.65;;;10.98;;
23632;SDS011;11993;48.748;9.166;2024-03-02T02:00:44;14.30;;;9.45;;
23632;SDS011;11993;48.748;9.166;2024-03-02T02:03:10;13.70;;;9.85;;
23632;SDS011;11993;48.748;9.166;2024-03-02T02:05:35;12.63;;;9.00;;
23632;SDS011;11993;48.748;9.166;2024-03-02T02:08:01;16.10;;;9.35;;
23632;SDS011;11993;48.748;9.166;2024-03-02T02:10:26;12.98;;;9.43;;
23632;SDS011;11993;48.748;9.166;2024-03-02T02:12:52;14.07;;;10.02;;
23632;SDS011;11993;48.748;9.166;2024-03-02T02:17:53;16.10;;;9.97;;
23632;SDS011;11993;48.748;9.166;2024-03-02T02:20:22;16.05;;;10.15;;
23632;SDS011;11993;48.748;9.166;2024-03-02T02:22:53;13.15;;;9.68;;
23632;SDS011;11993;48.748;9.166;2024-03-02T02:25:23;15.75;;;10.23;;
23632;SDS011;11993;48.748;9.166;2024-03-02T02:27:48;12.82;;;9.48;;
23632;SDS011;11993;48.748;9.166;2024-03-02T02:30:18;15.15;;;10.20;;
23632;SDS011;11993;48.748;9.166;2024-03-02T02:32:44;18.40;;;10.63;;
23632;SDS011;11993;48.748;9.166;2024-03-02T02:35:10;15.77;;;10.23;;
23632;SDS011;11993;48.748;9.166;2024-03-02T02:37:35;14.32;;;10.23;;
23632;SDS011;11993;48.748;9.166;2024-03-02T02:40:02;14.00;;;10.52;;
23632;SDS011;11993;48.748;9.166;2024-03-02T02:42:29;14.60;;;9.95;;
23632;SDS011;11993;48.748;9.166;2024-03-02T02:44:55;14.32;;;9.90;;
23632;SDS011;11993;48.748;9.166;2024-03-02T02:47:21;15.90;;;10.02;;
23632;SDS011;11993;48.748;9.166;2024-03-02T02:49:46;15.43;;;10.20;;
23632;SDS011;11993;48.748;9.166;2024-03-02T02:52:12;15.77;;;10.35;;
23632;SDS011;11993;48.748;9.166;2024-03-02T02:54:37;19.75;;;10.70;;
23632;SDS011;11993;48.748;9.166;2024-03-02T02:57:03;15.98;;;10.80;;
23632;SDS011;11993;48.748;9.166;2024-03-02T02:59:28;16.45;;;11.75;;
23632;SDS011;11993;48.748;9.166;2024-03-02T03:01:54;19.88;;;11.35;;
23632;SDS011;11993;48.748;9.166;2024-03-02T03:04:19;13.77;;;9.82;;
23632;SDS011;11993;48.748;9.166;2024-03-02T03:06:45;16.83;;;11.00;;
23632;SDS011;11993;48.748;9.166;2024-03-02T03:09:11;18.40;;;12.15;;
23632;SDS011;11993;48.748;9.166;2024-03-02T03:11:36;18.52;;;11.80;;
23632;SDS011;11993;48.748;9.166;2024-03-02T03:14:02;17.27;;;11.23;;
23632;SDS011;11993;48.748;9.166;2024-03-02T03:16:28;18.40;;;11.07;;
23632;SDS011;11993;48.748;9.166;2024-03-02T03:18:53;19.25;;;11.75;;
23632;SDS011;11993;48.748;9.166;2024-03-02T03:21:19;15.80;;;10.90;;
23632;SDS011;11993;48.748;9.166;2024-03-02T03:23:44;17.27;;;12.48;;
23632;SDS011;11993;48.748;9.166;2024-03-02T03:26:10;16.02;;;11.70;;
23632;SDS011;11993;48.748;9.166;2024-03-02T03:28:35;20.27;;;12.70;;
23632;SDS011;11993;48.748;9.166;2024-03-02T03:31:01;19.48;;;11.73;;
23632;SDS011;11993;48.748;9.166;2024-03-02T03:33:27;21.73;;;14.18;;
23632;SDS011;11993;48.748;9.166;2024-03-02T03:35:52;23.80;;;14.60;;
23632;SDS011;11993;48.748;9.166;2024-03-02T03:38:18;19.77;;;12.95;;
23632;SDS011;11993;48.748;9.166;2024-03-02T03:40:44;18.73;;;12.60;;
23632;SDS011;11993;48.748;9.166;2024-03-02T03:43:10;18.45;;;13.45;;
23632;SDS011;11993;48.748;9.166;2024-03-02T03:45:35;21.67;;;13.13;;
23632;SDS011;11993;48.748;9.166;2024-03-02T03:48:02;20.25;;;13.05;;
23632;SDS011;11993;48.748;9.166;2024-03-02T03:50:27;26.90;;;15.70;;
23632;SDS011;11993;48.748;9.166;2024-03-02T03:52:53;19.05;;;13.32;;
23632;SDS011;11993;48.748;9.166;2024-03-02T03:55:19;19.50;;;13.30;;
23632;SDS011;11993;48.748;9.166;2024-03-02T03:57:44;20.13;;;13.10;;
23632;SDS011;11993;48.748;9.166;2024-03-02T04:00:10;19.65;;;13.00;;
23632;SDS011;11993;48.748;9.166;2024-03-02T04:02:37;19.60;;;12.55;;
23632;SDS011;11993;48.748;9.166;2024-03-02T04:05:02;21.33;;;13.57;;
23632;SDS011;11993;48.748;9.166;2024-03-02T04:07:33;20.30;;;12.98;;
23632;SDS011;11993;48.748;9.166;2024-03-02T04:10:05;24.90;;;15.52;;
23632;SDS011;11993;48.748;9.166;2024-03-02T04:12:33;23.60;;;14.95;;
23632;SDS011;11993;48.748;9.166;2024-03-02T04:14:59;22.83;;;15.68;;
23632;SDS011;11993;48.748;9.166;2024-03-02T04:17:26;27.25;;;15.75;;
23632;SDS011;11993;48.748;9.166;2024-03-02T04:19:52;22.90;;;14.85;;
23632;SDS011;11993;48.748;9.166;2024-03-02T04:22:17;21.42;;;13.48;;
23632;SDS011;11993;48.748;9.166;2024-03-02T04:24:43;22.92;;;13.35;;
23632;SDS011;11993;48.748;9.166;2024-03-02T04:27:08;19.65;;;13.57;;
23632;SDS011;11993;48.748;9.166;2024-03-02T04:29:34;17.98;;;12.63;;
23632;SDS011;11993;48.748;9.166;2024-03-02T04:31:59;19.92;;;12.23;;
23632;SDS011;11993;48.748;9.166;2024-03-02T04:34:25;19.05;;;13.38;;
23632;SDS011;11993;48.748;9.166;2024-03-02T04:36:50;19.27;;;13.00;;
23632;SDS011;11993;48.748;9.166;2024-03-02T04:39:16;20.25;;;13.35;;
23632;SDS011;11993;48.748;9.166;2024-03-02T04:41:41;18.58;;;12.10;;
23632;SDS011;11993;48.748;9.166;2024-03-02T04:44:07;18.20;;;12.38;;
23632;SDS011;11993;48.748;9.166;2024-03-02T04:46:33;19.83;;;13.77;;
23632;SDS011;11993;48.748;9.166;2024-03-02T04:48:58;20.15;;;13.23;;
23632;SDS011;11993;48.748;9.166;2024-03-02T04:51:24;21.75;;;13.68;;
23632;SDS011;11993;48.748;9.166;2024-03-02T04:53:49;22.55;;;13.52;;
23632;SDS011;11993;48.748;9.166;2024-03-02T04:56:15;19.77;;;13.20;;
23632;SDS011;11993;48.748;9.166;2024-03-02T04:58:56;17.83;;;11.90;;
23632;SDS011;11993;48.748;9.166;2024-03-02T05:01:21;18.77;;;12.70;;
23632;SDS011;11993;48.748;9.166;2024-03-02T05:03:47;20.65;;;13.10;;
23632;SDS011;11993;48.748;9.166;2024-03-02T05:06:12;19.70;;;13.85;;
23632;SDS011;11993;48.748;9.166;2024-03-02T05:08:38;21.15;;;13.52;;
23632;SDS011;11993;48.748;9.166;2024-03-02T05:11:04;21.15;;;14.15;;
23632;SDS011;11993;48.748;9.166;2024-03-02T05:13:48;21.77;;;14.30;;
23632;SDS011;11993;48.748;9.166;2024-03-02T05:16:14;21.17;;;13.38;;
23632;SDS011;11993;48.748;9.166;2024-03-02T05:18:39;22.65;;;14.50;;
23632;SDS011;11993;48.748;9.166;2024-03-02T05:21:05;26.98;;;15.00;;
23632;SDS011;11993;48.748;9.166;2024-03-02T05:23:30;23.35;;;14.60;;
23632;SDS011;11993;48.748;9.166;2024-03-02T05:25:56;18.95;;;13.02;;
23632;SDS011;11993;48.748;9.166;2024-03-02T05:28:21;21.42;;;14.40;;
23632;SDS011;11993;48.748;9.166;2024-03-02T05:30:47;23.77;;;15.43;;
23632;SDS011;11993;48.748;9.166;2024-03-02T05:33:12;20.25;;;14.50;;
23632;SDS011;11993;48.748;9.166;2024-03-02T05:35:38;22.88;;;14.57;;
23632;SDS011;11993;48.748;9.166;2024-03-02T05:38:03;23.00;;;14.35;;
23632;SDS011;11993;48.748;9.166;2024-03-02T05:40:29;23.60;;;14.80;;
23632;SDS011;11993;48.748;9.166;2024-03-02T05:42:55;21.77;;;14.15;;
23632;SDS011;11993;48.748;9.166;2024-03-02T05:45:21;25.88;;;16.45;;
23632;SDS011;11993;48.748;9.166;2024-03-02T05:47:46;24.83;;;15.65;;
23632;SDS011;11993;48.748;9.166;2024-03-02T05:50:12;30.05;;;18.70;;
23632;SDS011;11993;48.748;9.166;2024-03-02T05:52:37;21.90;;;15.18;;
23632;SDS011;11993;48.748;9.166;2024-03-02T05:55:04;23.90;;;15.05;;
23632;SDS011;11993;48.748;9.166;2024-03-02T05:57:29;27.95;;;15.63;;
23632;SDS011;11993;48.748;9.166;2024-03-02T06:00:20;22.70;;;14.23;;
23632;SDS011;11993;48.748;9.166;2024-03-02T06:02:47;23.73;;;16.70;;
23632;SDS011;11993;48.748;9.166;2024-03-02T06:05:12;30.42;;;16.27;;
23632;SDS011;11993;48.748;9.166;2024-03-02T06:07:38;22.90;;;14.65;;
23632;SDS011;11993;48.748;9.166;2024-03-02T06:10:03;25.15;;;16.23;;
23632;SDS011;11993;48.748;9.166;2024-03-02T06:12:32;24.13;;;15.85;;
23632;SDS011;11993;48.748;9.166;2024-03-02T06:14:57;22.17;;;14.70;;
23632;SDS011;11993;48.748;9.166;2024-03-02T06:17:23;23.60;;;15.80;;
23632;SDS011;11993;48.748;9.166;2024-03-02T06:19:49;23.00;;;14.73;;
23632;SDS011;11993;48.748;9.166;2024-03-02T06:22:14;22.25;;;13.13;;
23632;SDS011;11993;48.748;9.166;2024-03-02T06:24:40;29.77;;;17.48;;
23632;SDS011;11993;48.748;9.166;2024-03-02T06:27:05;22.63;;;13.98;;
23632;SDS011;11993;48.748;9.166;2024-03-02T06:29:34;20.05;;;12.70;;
23632;SDS011;11993;48.748;9.166;2024-03-02T06:31:59;17.13;;;12.30;;
23632;SDS011;11993;48.748;9.166;2024-03-02T06:34:25;22.15;;;14.52;;
23632;SDS011;11993;48.748;9.166;2024-03-02T06:36:51;17.55;;;12.43;;
23632;SDS011;11993;48.748;9.166;2024-03-02T06:39:16;20.83;;;12.80;;
23632;SDS011;11993;48.748;9.166;2024-03-02T06:41:42;20.58;;;12.68;;
23632;SDS011;11993;48.748;9.166;2024-03-02T06:44:07;19.05;;;12.02;;
23632;SDS011;11993;48.748;9.166;2024-03-02T06:46:33;17.85;;;12.10;;
23632;SDS011;11993;48.748;9.166;2024-03-02T06:48:58;16.63;;;11.63;;
23632;SDS011;11993;48.748;9.166;2024-03-02T06:51:24;17.70;;;12.23;;
23632;SDS011;11993;48.748;9.166;2024-03-02T06:53:50;16.35;;;11.45;;
23632;SDS011;11993;48.748;9.166;2024-03-02T06:56:15;21.27;;;12.00;;
23632;SDS011;11993;48.748;9.166;2024-03-02T06:58:40;17.25;;;11.80;;
23632;SDS011;11993;48.748;9.166;2024-03-02T07:01:07;13.93;;;10.43;;
23632;SDS011;11993;48.748;9.166;2024-03-02T07:03:33;17.58;;;11.32;;
23632;SDS011;11993;48.748;9.166;2024-03-02T07:05:58;16.33;;;10.68;;
23632;SDS011;11993;48.748;9.166;2024-03-02T07:08:24;16.25;;;10.90;;
23632;SDS011;11993;48.748;9.166;2024-03-02T07:10:50;14.20;;;9.75;;
23632;SDS011;11993;48.748;9.166;2024-03-02T07:13:15;14.50;;;10.15;;
23632;SDS011;11993;48.748;9.166;2024-03-02T07:15:41;15.70;;;10.40;;
23632;SDS011;11993;48.748;9.166;2024-03-02T07:18:44;11.98;;;9.38;;
23632;SDS011;11993;48.748;9.166;2024-03-02T07:21:16;17.48;;;9.80;;
23632;SDS011;11993;48.748;9.166;2024-03-02T07:23:41;16.17;;;10.18;;
23632;SDS011;11993;48.748;9.166;2024-03-02T07:26:07;12.48;;;8.70;;
23632;SDS011;11993;48.748;9.166;2024-03-02T07:28:32;13.50;;;9.55;;
23632;SDS011;11993;48.748;9.166;2024-03-02T07:30:59;13.25;;;9.35;;
23632;SDS011;11993;48.748;9.166;2024-03-02T07:33:25;18.42;;;9.13;;
23632;SDS011;11993;48.748;9.166;2024-03-02T07:35:51;13.02;;;8.98;;
23632;SDS011;11993;48.748;9.166;2024-03-02T07:38:18;14.93;;;9.25;;
23632;SDS011;11993;48.748;9.166;2024-03-02T07:40:44;14.30;;;8.65;;
23632;SDS011;11993;48.748;9.166;2024-03-02T07:43:10;12.80;;;9.13;;
23632;SDS011;11993;48.748;9.166;2024-03-02T07:45:36;11.52;;;7.65;;
23632;SDS011;11993;48.748;9.166;2024-03-02T07:48:02;18.55;;;9.27;;
23632;SDS011;11993;48.748;9.166;2024-03-02T07:50:29;13.77;;;9.60;;
23632;SDS011;11993;48.748;9.166;2024-03-02T07:52:55;15.15;;;8.88;;
23632;SDS011;11993;48.748;9.166;2024-03-02T07:55:21;14.60;;;9.55;;
23632;SDS011;11993;48.748;9.166;2024-03-02T07:57:46;12.80;;;8.68;;
23632;SDS011;11993;48.748;9.166;2024-03-02T08:00:12;12.65;;;8.48;;
23632;SDS011;11993;48.748;9.166;2024-03-02T08:02:39;12.65;;;9.18;;
23632;SDS011;11993;48.748;9.166;2024-03-02T08:05:05;12.05;;;8.60;;
23632;SDS011;11993;48.748;9.166;2024-03-02T08:07:31;12.65;;;9.52;;
23632;SDS011;11993;48.748;9.166;2024-03-02T08:09:57;14.32;;;9.25;;
23632;SDS011;11993;48.748;9.166;2024-03-02T08:12:22;14.90;;;9.30;;
23632;SDS011;11993;48.748;9.166;2024-03-02T08:14:48;14.60;;;9.27;;
23632;SDS011;11993;48.748;9.166;2024-03-02T08:17:14;17.83;;;10.18;;
23632;SDS011;11993;48.748;9.166;2024-03-02T08:19:39;13.45;;;9.25;;
23632;SDS011;11993;48.748;9.166;2024-03-02T08:22:05;13.05;;;9.27;;
23632;SDS011;11993;48.748;9.166;2024-03-02T08:24:31;12.35;;;8.80;;
23632;SDS011;11993;48.748;9.166;2024-03-02T08:26:58;13.00;;;8.57;;
23632;SDS011;11993;48.748;9.166;2024-03-02T08:29:27;11.50;;;7.95;;
23632;SDS011;11993;48.748;9.166;2024-03-02T08:31:53;12.63;;;8.60;;
23632;SDS011;11993;48.748;9.166;2024-03-02T08:34:19;11.05;;;7.72;;
23632;SDS011;11993;48.748;9.166;2024-03-02T08:36:45;12.75;;;8.80;;
23632;SDS011;11993;48.748;9.166;2024-03-02T08:39:11;12.95;;;8.80;;
23632;SDS011;11993;48.748;9.166;2024-03-02T08:41:44;12.05;;;8.27;;
23632;SDS011;11993;48.748;9.166;2024-03-02T08:44:11;13.13;;;9.02;;
23632;SDS011;11993;48.748;9.166;2024-03-02T08:46:37;11.63;;;8.68;;
23632;SDS011;11993;48.748;9.166;2024-03-02T08:49:03;12.80;;;9.07;;
23632;SDS011;11993;48.748;9.166;2024-03-02T08:51:29;13.15;;;8.70;;
23632;SDS011;11993;48.748;9.166;2024-03-02T08:53:55;11.20;;;8.30;;
23632;SDS011;11993;48.748;9.166;2024-03-02T08:56:21;9.70;;;7.20;;
23632;SDS011;11993;48.748;9.166;2024-03-02T08:58:48;8.73;;;6.57;;
23632;SDS011;11993;48.748;9.166;2024-03-02T09:01:14;9.90;;;7.05;;
23632;SDS011;11993;48.748;9.166;2024-03-02T09:03:40;10.10;;;6.80;;
23632;SDS011;11993;48.748;9.166;2024-03-02T09:06:09;7.95;;;6.50;;
23632;SDS011;11993;48.748;9.166;2024-03-02T09:08:35;9.68;;;7.50;;
23632;SDS011;11993;48.748;9.166;2024-03-02T09:11:01;9.07;;;6.38;;
23632;SDS011;11993;48.748;9.166;2024-03-02T09:13:28;8.32;;;6.85;;
23632;SDS011;11993;48.748;9.166;2024-03-02T09:15:54;11.15;;;6.50;;
23632;SDS011;11993;48.748;9.166;2024-03-02T09:18:19;9.90;;;6.75;;
23632;SDS011;11993;48.748;9.166;2024-03-02T09:20:45;8.52;;;6.30;;
23632;SDS011;11993;48.748;9.166;2024-03-02T09:23:11;8.30;;;5.53;;
23632;SDS011;11993;48.748;9.166;2024-03-02T09:25:36;9.02;;;6.00;;
23632;SDS011;11993;48.748;9.166;2024-03-02T09:28:02;8.23;;;6.03;;
23632;SDS011;11993;48.748;9.166;2024-03-02T09:30:28;9.90;;;6.43;;
23632;SDS011;11993;48.748;9.166;2024-03-02T09:32:53;8.63;;;6.60;;
23632;SDS011;11993;48.748;9.166;2024-03-02T09:35:19;7.25;;;5.32;;
23632;SDS011;11993;48.748;9.166;2024-03-02T09:37:45;8.43;;;5.47;;
23632;SDS011;11993;48.748;9.166;2024-03-02T09:40:11;8.90;;;5.03;;
23632;SDS011;11993;48.748;9.166;2024-03-02T09:42:38;9.13;;;4.95;;
23632;SDS011;11993;48.748;9.166;2024-03-02T09:45:04;5.78;;;4.38;;
23632;SDS011;11993;48.748;9.166;2024-03-02T09:47:31;6.40;;;4.25;;
23632;SDS011;11993;48.748;9.166;2024-03-02T09:49:56;7.90;;;4.78;;
23632;SDS011;11993;48.748;9.166;2024-03-02T09:52:22;7.03;;;5.30;;
23632;SDS011;11993;48.748;9.166;2024-03-02T09:54:48;5.93;;;4.82;;
23632;SDS011;11993;48.748;9.166;2024-03-02T09:57:14;8.70;;;5.15;;
23632;SDS011;11993;48.748;9.166;2024-03-02T09:59:40;6.28;;;4.60;;
23632;SDS011;11993;48.748;9.166;2024-03-02T10:02:06;6.00;;;3.95;;
23632;SDS011;11993;48.748;9.166;2024-03-02T10:04:32;5.97;;;3.95;;
23632;SDS011;11993;48.748;9.166;2024-03-02T10:07:10;4.65;;;3.38;;
23632;SDS011;11993;48.748;9.166;2024-03-02T10:09:40;5.22;;;4.45;;
23632;SDS011;11993;48.748;9.166;2024-03-02T10:12:07;5.63;;;4.47;;
23632;SDS011;11993;48.748;9.166;2024-03-02T10:14:34;5.75;;;3.80;;
23632;SDS011;11993;48.748;9.166;2024-03-02T10:17:03;5.82;;;4.30;;
23632;SDS011;11993;48.748;9.166;2024-03-02T10:19:32;5.60;;;4.20;;
23632;SDS011;11993;48.748;9.166;2024-03-02T10:22:00;9.07;;;5.00;;
23632;SDS011;11993;48.748;9.166;2024-03-02T10:24:37;5.40;;;4.05;;
23632;SDS011;11993;48.748;9.166;2024-03-02T10:29:40;8.43;;;4.97;;
23632;SDS011;11993;48.748;9.166;2024-03-02T10:32:08;7.35;;;4.15;;
23632;SDS011;11993;48.748;9.166;2024-03-02T10:34:35;6.28;;;4.10;;
23632;SDS011;11993;48.748;9.166;2024-03-02T10:37:01;7.88;;;5.45;;
23632;SDS011;11993;48.748;9.166;2024-03-02T10:39:27;7.05;;;4.65;;
23632;SDS011;11993;48.748;9.166;2024-03-02T10:41:54;4.93;;;3.53;;
23632;SDS011;11993;48.748;9.166;2024-03-02T10:44:21;4.88;;;3.70;;
23632;SDS011;11993;48.748;9.166;2024-03-02T10:46:49;7.70;;;4.40;;
23632;SDS011;11993;48.748;9.166;2024-03-02T10:49:15;5.57;;;3.90;;
23632;SDS011;11993;48.748;9.166;2024-03-02T10:51:42;5.03;;;4.28;;
23632;SDS011;11993;48.748;9.166;2024-03-02T10:54:08;4.75;;;3.92;;
23632;SDS011;11993;48.748;9.166;2024-03-02T10:56:41;4.10;;;3.60;;
23632;SDS011;11993;48.748;9.166;2024-03-02T11:01:47;4.43;;;2.60;;
23632;SDS011;11993;48.748;9.166;2024-03-02T11:04:15;4.97;;;3.70;;
23632;SDS011;11993;48.748;9.166;2024-03-02T11:06:49;3.60;;;2.75;;
23632;SDS011;11993;48.748;9.166;2024-03-02T11:09:16;3.70;;;2.95;;
23632;SDS011;11993;48.748;9.166;2024-03-02T11:11:45;4.97;;;3.20;;
23632;SDS011;11993;48.748;9.166;2024-03-02T11:16:48;3.58;;;2.88;;
23632;SDS011;11993;48.748;9.166;2024-03-02T11:19:15;4.07;;;2.67;;
23632;SDS011;11993;48.748;9.166;2024-03-02T11:21:41;4.50;;;2.60;;
23632;SDS011;11993;48.748;9.166;2024-03-02T11:26:49;3.58;;;2.50;;
23632;SDS011;11993;48.748;9.166;2024-03-02T11:29:42;5.32;;;2.20;;
23632;SDS011;11993;48.748;9.166;2024-03-02T11:32:15;1.33;;;1.20;;
23632;SDS011;11993;48.748;9.166;2024-03-02T11:34:43;3.15;;;1.80;;
23632;SDS011;11993;48.748;9.166;2024-03-02T11:37:12;2.67;;;1.77;;
23632;SDS011;11993;48.748;9.166;2024-03-02T11:39:38;3.65;;;2.60;;
23632;SDS011;11993;48.748;9.166;2024-03-02T11:42:07;9.27;;;5.95;;
23632;SDS011;11993;48.748;9.166;2024-03-02T11:44:37;2.90;;;1.98;;
23632;SDS011;11993;48.748;9.166;2024-03-02T11:47:07;2.97;;;1.70;;
23632;SDS011;11993;48.748;9.166;2024-03-02T11:49:45;2.22;;;1.38;;
23632;SDS011;11993;48.748;9.166;2024-03-02T11:52:15;1.98;;;1.25;;
23632;SDS011;11993;48.748;9.166;2024-03-02T11:54:44;2.83;;;1.38;;
23632;SDS011;11993;48.748;9.166;2024-03-02T11:57:23;1.10;;;0.90;;
23632;SDS011;11993;48.748;9.166;2024-03-02T11:59:48;0.85;;;0.82;;
23632;SDS011;11993;48.748;9.166;2024-03-02T12:02:21;2.28;;;1.23;;
23632;SDS011;11993;48.748;9.166;2024-03-02T12:04:48;1.90;;;0.75;;
23632;SDS011;11993;48.748;9.166;2024-03-02T12:07:20;2.10;;;1.00;;
23632;SDS011;11993;48.748;9.166;2024-03-02T12:09:48;1.05;;;0.90;;
23632;SDS011;11993;48.748;9.166;2024-03-02T12:12:14;1.30;;;1.00;;
23632;SDS011;11993;48.748;9.166;2024-03-02T12:14:49;2.00;;;1.40;;
23632;SDS011;11993;48.748;9.166;2024-03-02T12:17:16;2.95;;;1.10;;
23632;SDS011;11993;48.748;9.166;2024-03-02T12:19:42;0.90;;;0.80;;
23632;SDS011;11993;48.748;9.166;2024-03-02T12:22:07;2.53;;;1.60;;
23632;SDS011;11993;48.748;9.166;2024-03-02T12:24:33;11.70;;;8.65;;
23632;SDS011;11993;48.748;9.166;2024-03-02T12:27:03;2.05;;;1.58;;
23632;SDS011;11993;48.748;9.166;2024-03-02T12:29:29;2.25;;;1.35;;
23632;SDS011;11993;48.748;9.166;2024-03-02T12:31:55;3.13;;;1.60;;
23632;SDS011;11993;48.748;9.166;2024-03-02T12:34:21;1.60;;;1.10;;
23632;SDS011;11993;48.748;9.166;2024-03-02T12:36:48;2.47;;;1.38;;
23632;SDS011;11993;48.748;9.166;2024-03-02T12:39:17;9.02;;;7.38;;
23632;SDS011;11993;48.748;9.166;2024-03-02T12:41:48;1.75;;;1.65;;
23632;SDS011;11993;48.748;9.166;2024-03-02T12:44:18;4.35;;;1.70;;
23632;SDS011;11993;48.748;9.166;2024-03-02T12:46:44;2.03;;;1.33;;
23632;SDS011;11993;48.748;9.166;2024-03-02T12:49:11;2.72;;;1.83;;
23632;SDS011;11993;48.748;9.166;2024-03-02T12:51:38;2.00;;;1.30;;
23632;SDS011;11993;48.748;9.166;2024-03-02T12:54:07;1.95;;;1.50;;
23632;SDS011;11993;48.748;9.166;2024-03-02T12:56:35;3.85;;;1.13;;
23632;SDS011;11993;48.748;9.166;2024-03-02T12:59:02;4.00;;;1.52;;
23632;SDS011;11993;48.748;9.166;2024-03-02T13:01:28;1.55;;;1.27;;
23632;SDS011;11993;48.748;9.166;2024-03-02T13:03:54;1.38;;;1.23;;
23632;SDS011;11993;48.748;9.166;2024-03-02T13:06:20;1.95;;;1.60;;
23632;SDS011;11993;48.748;9.166;2024-03-02T13:08:47;2.50;;;1.52;;
23632;SDS011;11993;48.748;9.166;2024-03-02T13:11:13;1.40;;;1.20;;
23632;SDS011;11993;48.748;9.166;2024-03-02T13:13:39;1.98;;;1.25;;
23632;SDS011;11993;48.748;9.166;2024-03-02T13:16:11;1.20;;;1.10;;
23632;SDS011;11993;48.748;9.166;2024-03-02T13:18:40;3.28;;;1.27;;
23632;SDS011;11993;48.748;9.166;2024-03-02T13:21:06;3.38;;;1.40;;
23632;SDS011;11993;48.748;9.166;2024-03-02T13:23:32;1.63;;;1.35;;
23632;SDS011;11993;48.748;9.166;2024-03-02T13:25:58;3.35;;;1.20;;
23632;SDS011;11993;48.748;9.166;2024-03-02T13:28:24;1.40;;;1.30;;
23632;SDS011;11993;48.748;9.166;2024-03-02T13:30:50;1.75;;;1.40;;
23632;SDS011;11993;48.748;9.166;2024-03-02T13:33:15;4.32;;;2.70;;
23632;SDS011;11993;48.748;9.166;2024-03-02T13:35:44;2.28;;;1.35;;
23632;SDS011;11993;48.748;9.166;2024-03-02T13:38:10;1.35;;;1.20;;
23632;SDS011;11993;48.748;9.166;2024-03-02T13:40:35;5.47;;;1.02;;
23632;SDS011;11993;48.748;9.166;2024-03-02T13:43:01;1.80;;;1.23;;
23632;SDS011;11993;48.748;9.166;2024-03-02T13:45:27;4.03;;;1.02;;
23632;SDS011;11993;48.748;9.166;2024-03-02T13:47:53;3.00;;;1.30;;
23632;SDS011;11993;48.748;9.166;2024-03-02T13:50:19;1.55;;;1.23;;
23632;SDS011;11993;48.748;9.166;2024-03-02T13:52:45;1.55;;;1.13;;
23632;SDS011;11993;48.748;9.166;2024-03-02T13:55:10;1.80;;;1.10;;
23632;SDS011;11993;48.748;9.166;2024-03-02T13:57:36;1.20;;;1.00;;
23632;SDS011;11993;48.748;9.166;2024-03-02T14:00:02;6.38;;;3.92;;
23632;SDS011;11993;48.748;9.166;2024-03-02T14:02:28;4.03;;;3.10;;
23632;SDS011;11993;48.748;9.166;2024-03-02T14:04:54;3.20;;;2.38;;
23632;SDS011;11993;48.748;9.166;2024-03-02T14:07:20;1.85;;;1.05;;
23632;SDS011;11993;48.748;9.166;2024-03-02T14:09:45;1.63;;;1.23;;
23632;SDS011;11993;48.748;9.166;2024-03-02T14:12:11;1.17;;;1.00;;
23632;SDS011;11993;48.748;9.166;2024-03-02T14:14:38;0.98;;;0.88;;
23632;SDS011;11993;48.748;9.166;2024-03-02T14:17:04;1.33;;;1.10;;
23632;SDS011;11993;48.748;9.166;2024-03-02T14:19:31;2.78;;;1.10;;
23632;SDS011;11993;48.748;9.166;2024-03-02T14:21:57;1.80;;;1.00;;
23632;SDS011;11993;48.748;9.166;2024-03-02T14:24:23;3.75;;;1.40;;
23632;SDS011;11993;48.748;9.166;2024-03-02T14:26:53;1.25;;;0.98;;
23632;SDS011;11993;48.748;9.166;2024-03-02T14:29:18;1.70;;;1.20;;
23632;SDS011;11993;48.748;9.166;2024-03-02T14:31:44;3.85;;;1.13;;
23632;SDS011;11993;48.748;9.166;2024-03-02T14:34:13;2.42;;;1.08;;
23632;SDS011;11993;48.748;9.166;2024-03-02T14:36:39;3.05;;;1.77;;
23632;SDS011;11993;48.748;9.166;2024-03-02T14:39:04;4.22;;;1.77;;
23632;SDS011;11993;48.748;9.166;2024-03-02T14:41:34;2.35;;;1.80;;
23632;SDS011;11993;48.748;9.166;2024-03-02T14:43:59;14.48;;;9.30;;
23632;SDS011;11993;48.748;9.166;2024-03-02T14:46:25;3.53;;;2.53;;
23632;SDS011;11993;48.748;9.166;2024-03-02T14:48:51;2.45;;;1.08;;
23632;SDS011;11993;48.748;9.166;2024-03-02T14:51:17;1.10;;;0.93;;
23632;SDS011;11993;48.748;9.166;2024-03-02T14:53:43;1.80;;;1.00;;